Time;durP1;ratioP1;P1;durP2;ratioP2;P2;SDS_P1;SDS_P2;PMS_P1;PMS_P2;Temp;Humidity;BMP_temperature;BMP_pressure;BME280_temperature;BME280_humidity;BME280_pressure;Samples;Min_cycle;Max_cycle;Signal;HPM_P1;HPM_P2
2022/11/28 00:00:47;;;;;;;14.10;10.10;;;3.70;99.90;;;;;;5043152;28;20268;-49
2022/11/28 00:03:14;;;;;;;12.77;10.17;;;3.70;99.90;;;;;;5044947;28;20634;-49
2022/11/28 00:05:41;;;;;;;14.37;10.30;;;3.70;99.90;;;;;;5051479;28;20201;-48
2022/11/28 00:08:08;;;;;;;15.63;12.03;;;3.70;99.90;;;;;;5043951;28;20664;-48
2022/11/28 00:10:39;;;;;;;17.10;10.70;;;3.60;99.90;;;;;;5052134;28;20243;-49
2022/11/28 00:13:07;;;;;;;12.47;10.47;;;3.60;99.90;;;;;;5044581;28;20670;-50
2022/11/28 00:15:34;;;;;;;16.27;11.10;;;3.70;99.90;;;;;;5043501;28;20248;-49
2022/11/28 00:18:02;;;;;;;13.33;10.27;;;3.70;99.90;;;;;;5039490;28;20583;-48
2022/11/28 00:20:31;;;;;;;13.97;11.33;;;3.70;99.90;;;;;;5049309;28;20656;-49
2022/11/28 00:22:58;;;;;;;12.90;10.47;;;3.70;99.90;;;;;;5051418;28;20241;-49
2022/11/28 00:25:25;;;;;;;14.10;10.80;;;3.70;99.90;;;;;;5041422;28;20203;-49
2022/11/28 00:27:52;;;;;;;17.40;11.53;;;3.70;99.90;;;;;;5043121;28;20673;-48
2022/11/28 00:30:20;;;;;;;15.73;11.93;;;3.70;99.90;;;;;;5051211;28;20219;-50
2022/11/28 00:32:47;;;;;;;13.03;10.50;;;3.80;99.90;;;;;;5045295;28;20203;-49
2022/11/28 00:35:14;;;;;;;17.37;12.03;;;3.80;99.90;;;;;;5046331;28;20223;-49
2022/11/28 00:37:41;;;;;;;16.47;11.33;;;3.80;99.90;;;;;;5051071;28;20203;-49
2022/11/28 00:40:09;;;;;;;16.43;12.50;;;3.80;99.90;;;;;;5042828;28;20233;-49
2022/11/28 00:42:36;;;;;;;14.03;10.40;;;3.80;99.90;;;;;;5042998;28;20207;-49
2022/11/28 00:45:04;;;;;;;17.03;12.83;;;3.80;99.90;;;;;;5047030;28;20425;-49
2022/11/28 00:47:32;;;;;;;15.70;10.57;;;3.90;99.90;;;;;;5048316;28;20211;-50
2022/11/28 00:49:59;;;;;;;15.60;12.27;;;3.90;99.90;;;;;;5047850;28;20227;-49
2022/11/28 00:52:26;;;;;;;12.20;10.90;;;3.90;99.90;;;;;;5045447;28;20249;-49
2022/11/28 00:54:53;;;;;;;19.27;12.00;;;3.90;99.90;;;;;;5047503;28;20222;-50
2022/11/28 00:57:20;;;;;;;17.60;12.17;;;3.90;99.90;;;;;;5045316;28;20587;-50
2022/11/28 00:59:47;;;;;;;12.50;9.97;;;3.90;99.90;;;;;;5048562;28;20227;-49
2022/11/28 01:02:14;;;;;;;13.07;11.23;;;3.90;99.90;;;;;;5038323;28;20611;-49
2022/11/28 01:04:43;;;;;;;15.03;11.10;;;3.90;99.90;;;;;;5045175;28;20207;-50
2022/11/28 01:07:10;;;;;;;15.07;11.57;;;3.90;99.90;;;;;;5050606;28;20200;-50
2022/11/28 01:09:38;;;;;;;16.40;11.83;;;3.90;99.90;;;;;;5043916;28;20227;-50
2022/11/28 01:12:05;;;;;;;15.37;11.63;;;3.90;99.90;;;;;;5051790;28;20202;-50
2022/11/28 01:14:33;;;;;;;16.33;12.00;;;3.90;99.90;;;;;;5050641;28;20222;-49
2022/11/28 01:17:00;;;;;;;18.10;11.93;;;3.90;99.90;;;;;;5051765;28;20210;-49
2022/11/28 01:19:27;;;;;;;17.93;11.77;;;3.90;99.90;;;;;;5051542;28;20227;-50
2022/11/28 01:21:56;;;;;;;20.23;14.27;;;3.80;99.90;;;;;;5051511;28;20204;-49
2022/11/28 01:24:23;;;;;;;15.40;12.60;;;3.80;99.90;;;;;;5041573;28;20207;-50
2022/11/28 01:26:50;;;;;;;13.43;11.47;;;3.80;99.90;;;;;;5052229;28;20223;-49
2022/11/28 01:29:17;;;;;;;15.17;11.97;;;3.80;99.90;;;;;;5071228;28;20592;-50
2022/11/28 01:31:44;;;;;;;20.33;13.30;;;3.90;99.90;;;;;;5061201;28;20568;-48
2022/11/28 01:34:11;;;;;;;17.03;12.97;;;3.90;99.90;;;;;;5050777;28;20235;-49
2022/11/28 01:36:38;;;;;;;16.03;12.40;;;3.90;99.90;;;;;;5051551;28;20208;-49
2022/11/28 01:39:06;;;;;;;13.17;11.77;;;3.80;99.90;;;;;;5051136;28;20252;-48
2022/11/28 01:41:33;;;;;;;16.43;12.57;;;3.90;99.90;;;;;;5042209;28;20208;-48
2022/11/28 01:44:04;;;;;;;18.63;13.67;;;3.80;99.90;;;;;;5054100;28;20209;-48
2022/11/28 01:46:32;;;;;;;21.27;12.60;;;3.80;99.90;;;;;;5047712;28;20204;-49
2022/11/28 01:49:04;;;;;;;17.70;12.97;;;3.80;99.90;;;;;;5050449;28;20227;-50
2022/11/28 01:51:31;;;;;;;19.40;14.00;;;3.80;99.90;;;;;;5051173;28;20208;-49
2022/11/28 01:53:59;;;;;;;16.47;12.50;;;3.80;99.90;;;;;;5050286;28;20206;-50
2022/11/28 01:56:35;;;;;;;18.37;12.37;;;3.80;99.90;;;;;;5049942;28;20663;-49
2022/11/28 01:59:07;;;;;;;15.47;11.30;;;3.80;99.90;;;;;;5048708;28;20208;-50
2022/11/28 02:01:34;;;;;;;16.70;12.07;;;3.80;99.90;;;;;;5050452;28;20211;-49
2022/11/28 02:04:01;;;;;;;15.13;12.33;;;3.80;99.90;;;;;;5050290;28;20202;-49
2022/11/28 02:06:28;;;;;;;16.57;12.83;;;3.90;99.90;;;;;;5050998;28;20207;-50
2022/11/28 02:08:56;;;;;;;15.53;12.23;;;4.00;99.90;;;;;;5049742;28;20210;-50
2022/11/28 02:12:09;;;;;;;13.57;11.27;;;3.90;99.90;;;;;;5043233;28;20208;-49
2022/11/28 02:14:57;;;;;;;13.83;12.13;;;3.80;99.90;;;;;;5047871;28;20717;-49
2022/11/28 02:17:35;;;;;;;19.30;13.63;;;3.80;99.90;;;;;;5045721;28;20201;-48
2022/11/28 02:20:41;;;;;;;17.90;12.37;;;3.70;99.90;;;;;;5031391;28;20597;-49
2022/11/28 02:23:14;;;;;;;13.10;11.40;;;3.70;99.90;;;;;;5036695;28;20305;-49
2022/11/28 02:26:24;;;;;;;15.30;11.50;;;3.60;99.90;;;;;;5048631;28;20215;-48
2022/11/28 02:29:35;;;;;;;16.77;12.23;;;3.60;99.90;;;;;;5031256;28;20227;-49
2022/11/28 02:32:29;;;;;;;17.93;13.00;;;3.60;99.90;;;;;;5039953;28;20206;-50
2022/11/28 02:35:05;;;;;;;16.77;12.10;;;3.60;99.90;;;;;;5050932;28;20231;-49
2022/11/28 02:37:38;;;;;;;17.30;12.43;;;3.60;99.90;;;;;;5050944;28;20230;-50
2022/11/28 02:40:15;;;;;;;16.73;11.63;;;3.70;99.90;;;;;;5047080;28;20223;-49
2022/11/28 02:42:54;;;;;;;15.80;12.47;;;3.70;99.90;;;;;;5053933;28;20205;-49
2022/11/28 02:45:29;;;;;;;18.33;14.37;;;3.70;99.90;;;;;;5048584;28;20673;-50
2022/11/28 02:48:03;;;;;;;18.33;12.73;;;3.70;99.90;;;;;;5054442;28;20664;-49
2022/11/28 02:50:38;;;;;;;16.87;11.93;;;3.80;99.90;;;;;;5054599;28;20601;-50
2022/11/28 02:53:08;;;;;;;17.50;12.73;;;3.80;99.90;;;;;;5053475;28;20210;-48
2022/11/28 02:55:39;;;;;;;15.57;13.30;;;3.80;99.90;;;;;;5054509;28;20222;-49
2022/11/28 02:58:07;;;;;;;18.00;13.23;;;3.90;99.90;;;;;;5049416;28;20227;-49
2022/11/28 03:00:36;;;;;;;17.43;11.87;;;3.80;99.90;;;;;;5054445;28;20222;-49
2022/11/28 03:03:47;;;;;;;12.70;10.97;;;3.80;99.90;;;;;;5053680;28;20203;-48
2022/11/28 03:06:29;;;;;;;14.10;12.03;;;3.80;99.90;;;;;;5054750;28;20204;-50
2022/11/28 03:09:26;;;;;;;15.77;12.37;;;3.70;99.90;;;;;;5057417;28;20207;-51
2022/11/28 03:12:02;;;;;;;13.77;11.40;;;3.70;99.90;;;;;;5074228;28;20202;-50
2022/11/28 03:14:45;;;;;;;13.87;10.43;;;3.70;99.90;;;;;;5047343;28;20207;-48
2022/11/28 03:17:18;;;;;;;12.30;10.90;;;3.60;99.90;;;;;;5034192;28;20215;-49
2022/11/28 03:19:55;;;;;;;14.23;11.70;;;3.70;99.90;;;;;;5033909;28;20765;-49
2022/11/28 03:22:30;;;;;;;15.57;10.67;;;3.70;99.90;;;;;;5033807;28;20216;-49
2022/11/28 03:25:06;;;;;;;17.03;12.07;;;3.70;99.90;;;;;;5043063;28;20675;-49
2022/11/28 03:27:36;;;;;;;15.10;11.40;;;3.60;99.90;;;;;;5045609;28;20627;-50
2022/11/28 03:30:10;;;;;;;15.60;12.30;;;3.60;99.90;;;;;;5041735;28;20232;-49
2022/11/28 03:32:39;;;;;;;16.23;12.80;;;3.50;99.90;;;;;;5045340;28;20214;-48
2022/11/28 03:35:10;;;;;;;16.17;11.20;;;3.60;99.90;;;;;;5051590;28;20289;-49
2022/11/28 03:37:44;;;;;;;16.47;12.07;;;3.60;99.90;;;;;;5053078;28;20226;-49
2022/11/28 03:40:19;;;;;;;14.37;11.37;;;3.70;99.90;;;;;;5043800;28;20309;-51
2022/11/28 03:42:50;;;;;;;16.57;12.23;;;3.60;99.90;;;;;;5053783;28;20210;-49
2022/11/28 03:45:22;;;;;;;14.90;11.10;;;3.60;99.90;;;;;;5053399;28;20191;-50
2022/11/28 03:47:53;;;;;;;16.17;12.33;;;3.50;99.90;;;;;;5044186;28;20212;-49
2022/11/28 03:50:26;;;;;;;14.57;11.50;;;3.60;99.90;;;;;;5053520;28;20223;-50
2022/11/28 03:53:00;;;;;;;14.70;12.50;;;3.70;99.90;;;;;;5052138;28;20204;-48
2022/11/28 03:55:33;;;;;;;14.93;11.73;;;3.70;99.90;;;;;;5053357;28;20234;-49
2022/11/28 03:58:07;;;;;;;14.77;11.37;;;3.60;99.90;;;;;;5053480;28;20204;-49
2022/11/28 04:00:42;;;;;;;14.53;11.27;;;3.60;99.90;;;;;;5053432;28;20219;-49
2022/11/28 04:03:16;;;;;;;12.77;11.47;;;3.60;99.90;;;;;;5045420;28;20215;-49
2022/11/28 04:05:47;;;;;;;12.97;10.87;;;3.60;99.90;;;;;;5050980;28;20199;-49
2022/11/28 04:08:19;;;;;;;18.10;12.23;;;3.60;99.90;;;;;;5047547;28;20212;-49
2022/11/28 04:10:52;;;;;;;15.47;11.73;;;3.60;99.90;;;;;;5051607;28;20224;-49
2022/11/28 04:13:24;;;;;;;15.83;11.40;;;3.60;99.90;;;;;;5046358;28;20221;-49
2022/11/28 04:15:57;;;;;;;15.53;11.80;;;3.60;99.90;;;;;;5064973;28;20486;-50
2022/11/28 04:18:27;;;;;;;17.80;13.77;;;3.70;99.90;;;;;;5067488;28;20199;-49
2022/11/28 04:20:59;;;;;;;16.27;13.33;;;3.70;99.90;;;;;;5067604;28;20227;-50
2022/11/28 04:23:31;;;;;;;14.87;13.23;;;3.70;99.90;;;;;;5066553;28;20210;-50
2022/11/28 04:26:03;;;;;;;15.17;12.87;;;3.70;99.90;;;;;;5063098;28;20207;-50
2022/11/28 04:28:33;;;;;;;17.87;14.10;;;3.80;99.90;;;;;;5053729;28;20210;-49
2022/11/28 04:31:02;;;;;;;18.33;13.00;;;3.90;99.90;;;;;;5041915;28;20219;-49
2022/11/28 04:33:33;;;;;;;15.53;12.57;;;3.80;99.90;;;;;;5050323;28;20200;-49
2022/11/28 04:36:01;;;;;;;14.27;12.17;;;3.80;99.90;;;;;;5052225;28;20216;-49
2022/11/28 04:38:32;;;;;;;18.60;12.47;;;3.70;99.90;;;;;;5052579;28;20203;-50
2022/11/28 04:41:04;;;;;;;16.67;11.63;;;3.70;99.90;;;;;;5052456;28;20230;-52
2022/11/28 04:43:37;;;;;;;15.07;12.03;;;3.60;99.90;;;;;;5051865;28;20219;-50
2022/11/28 04:46:09;;;;;;;14.00;12.17;;;3.60;99.90;;;;;;5049274;28;20685;-51
2022/11/28 04:48:36;;;;;;;14.47;12.30;;;3.60;99.90;;;;;;5052340;28;20207;-50
2022/11/28 04:51:15;;;;;;;16.37;13.50;;;3.60;99.90;;;;;;5052592;28;20227;-50
2022/11/28 04:53:49;;;;;;;17.70;13.27;;;3.50;99.90;;;;;;5046773;28;20709;-49
2022/11/28 04:56:21;;;;;;;18.53;13.43;;;3.50;99.90;;;;;;5048225;28;20229;-49
2022/11/28 04:58:50;;;;;;;19.27;13.67;;;3.50;99.90;;;;;;5052896;28;20795;-48
2022/11/28 05:01:21;;;;;;;18.93;13.87;;;3.50;99.90;;;;;;5049755;28;20205;-49
2022/11/28 05:03:50;;;;;;;17.67;14.10;;;3.50;99.90;;;;;;5048340;28;20208;-49
2022/11/28 05:06:26;;;;;;;18.17;14.33;;;3.50;99.90;;;;;;5051345;28;20207;-50
2022/11/28 05:08:54;;;;;;;17.57;14.13;;;3.70;99.90;;;;;;5051738;28;20272;-51
2022/11/28 05:11:21;;;;;;;17.53;13.80;;;3.80;99.90;;;;;;5052286;28;20203;-50
2022/11/28 05:13:49;;;;;;;22.27;16.00;;;3.90;99.90;;;;;;5048871;28;20572;-50
2022/11/28 05:16:17;;;;;;;16.00;14.23;;;3.90;99.90;;;;;;5048969;28;20650;-50
2022/11/28 05:18:44;;;;;;;16.93;13.43;;;4.00;99.90;;;;;;5050972;28;20211;-49
2022/11/28 05:21:11;;;;;;;16.53;12.83;;;4.00;99.90;;;;;;5045210;28;20224;-51
2022/11/28 05:23:39;;;;;;;15.43;12.87;;;4.00;99.90;;;;;;5048070;28;20203;-48
2022/11/28 05:26:09;;;;;;;18.63;13.20;;;4.00;99.90;;;;;;5052093;28;20204;-50
2022/11/28 05:28:37;;;;;;;17.20;12.47;;;4.00;99.90;;;;;;5051919;28;20211;-51
2022/11/28 05:31:05;;;;;;;17.53;12.83;;;4.00;99.90;;;;;;5049873;28;20237;-49
2022/11/28 05:33:33;;;;;;;15.27;11.40;;;4.00;99.90;;;;;;5044064;28;20200;-49
2022/11/28 05:36:03;;;;;;;15.43;12.40;;;3.90;99.90;;;;;;5049317;28;20257;-49
2022/11/28 05:38:32;;;;;;;14.57;11.63;;;3.90;99.90;;;;;;5044170;28;20215;-49
2022/11/28 05:40:59;;;;;;;14.63;11.87;;;3.90;99.90;;;;;;5031715;28;20224;-49
2022/11/28 05:43:27;;;;;;;14.50;12.30;;;3.80;99.90;;;;;;5031092;28;20207;-49
2022/11/28 05:45:55;;;;;;;13.40;11.90;;;3.80;99.90;;;;;;5031555;28;20601;-49
2022/11/28 05:48:22;;;;;;;14.87;11.50;;;3.80;99.90;;;;;;5060874;28;20202;-49
2022/11/28 05:50:50;;;;;;;12.40;11.07;;;3.80;99.90;;;;;;5049985;28;20253;-49
2022/11/28 05:53:18;;;;;;;13.47;11.77;;;3.70;99.90;;;;;;5046758;28;20247;-49
2022/11/28 05:55:45;;;;;;;12.23;11.07;;;3.80;99.90;;;;;;5047666;28;20748;-49
2022/11/28 05:58:12;;;;;;;15.23;12.00;;;3.80;99.90;;;;;;5045696;28;20207;-48
2022/11/28 06:00:41;;;;;;;14.97;11.20;;;3.80;99.90;;;;;;5048108;28;20216;-50
2022/11/28 06:03:08;;;;;;;20.33;12.73;;;3.70;99.90;;;;;;5050705;28;20211;-49
2022/11/28 06:05:38;;;;;;;14.87;11.23;;;3.80;99.90;;;;;;5050573;28;20202;-51
2022/11/28 06:08:05;;;;;;;17.13;12.23;;;3.90;99.90;;;;;;5043534;28;20242;-50
2022/11/28 06:10:32;;;;;;;15.63;11.90;;;4.00;99.90;;;;;;5041993;28;20224;-49
2022/11/28 06:12:59;;;;;;;19.90;12.33;;;3.90;99.90;;;;;;5048890;28;20208;-48
2022/11/28 06:15:26;;;;;;;13.97;11.97;;;3.90;99.90;;;;;;5049248;28;20223;-48
2022/11/28 06:17:55;;;;;;;14.93;12.53;;;3.80;99.90;;;;;;5054069;28;20682;-49
2022/11/28 06:20:22;;;;;;;15.53;11.87;;;3.80;99.90;;;;;;5048097;28;20235;-49
2022/11/28 06:22:49;;;;;;;15.43;12.67;;;3.80;99.90;;;;;;5051711;28;20275;-49
2022/11/28 06:25:16;;;;;;;16.77;12.60;;;3.80;99.90;;;;;;5057696;28;20203;-49
2022/11/28 06:27:43;;;;;;;16.83;12.37;;;3.80;99.90;;;;;;5054057;28;20203;-50
2022/11/28 06:30:11;;;;;;;15.17;12.27;;;3.90;99.90;;;;;;5053907;28;20231;-49
2022/11/28 06:32:38;;;;;;;13.67;12.00;;;3.80;99.90;;;;;;5053294;28;20807;-50
2022/11/28 06:35:07;;;;;;;15.00;11.33;;;3.80;99.90;;;;;;5053582;28;20203;-50
2022/11/28 06:37:34;;;;;;;16.03;11.47;;;3.90;99.90;;;;;;5048044;28;20227;-49
2022/11/28 06:40:01;;;;;;;13.27;11.07;;;3.90;99.90;;;;;;5054969;28;20225;-49
2022/11/28 06:42:28;;;;;;;11.07;9.53;;;3.90;99.90;;;;;;5053208;28;20204;-49
2022/11/28 06:44:56;;;;;;;10.80;9.37;;;4.00;99.90;;;;;;5052090;28;20205;-50
2022/11/28 06:47:23;;;;;;;10.37;9.13;;;4.00;99.90;;;;;;5054279;28;20741;-49
2022/11/28 06:49:50;;;;;;;12.77;11.00;;;4.00;99.90;;;;;;5052703;28;20221;-49
2022/11/28 06:52:18;;;;;;;13.03;10.23;;;4.10;99.90;;;;;;5054186;28;20204;-49
2022/11/28 06:54:46;;;;;;;19.37;13.07;;;4.10;99.90;;;;;;5051523;28;20211;-49
2022/11/28 06:57:13;;;;;;;13.67;12.07;;;4.20;99.90;;;;;;5054194;28;20244;-49
2022/11/28 06:59:41;;;;;;;17.40;13.33;;;4.20;99.90;;;;;;5054287;28;20232;-50
2022/11/28 07:02:10;;;;;;;13.60;12.20;;;4.20;99.90;;;;;;5051451;28;20586;-49
2022/11/28 07:04:37;;;;;;;17.10;12.93;;;4.30;99.90;;;;;;5051372;28;20199;-49
2022/11/28 07:07:04;;;;;;;20.83;12.63;;;4.20;99.90;;;;;;5052684;28;20709;-50
2022/11/28 07:09:34;;;;;;;13.77;11.63;;;4.30;99.90;;;;;;5050733;28;20234;-49
2022/11/28 07:12:01;;;;;;;15.87;13.30;;;4.20;99.90;;;;;;5048603;28;20199;-49
2022/11/28 07:14:28;;;;;;;14.57;12.70;;;4.20;99.90;;;;;;5052223;28;20208;-49
2022/11/28 07:16:55;;;;;;;26.57;15.17;;;4.30;99.90;;;;;;5053729;28;20709;-49
2022/11/28 07:19:22;;;;;;;23.50;15.87;;;4.20;99.90;;;;;;5048148;28;20235;-49
2022/11/28 07:21:49;;;;;;;18.37;14.67;;;4.20;99.90;;;;;;5046408;28;20287;-49
2022/11/28 07:24:17;;;;;;;16.57;12.43;;;4.30;99.90;;;;;;5048299;28;20295;-49
2022/11/28 07:26:46;;;;;;;17.53;13.83;;;4.30;99.90;;;;;;5053671;28;20201;-50
2022/11/28 07:29:15;;;;;;;14.33;11.73;;;4.20;99.90;;;;;;5053797;28;20220;-50
2022/11/28 07:31:42;;;;;;;14.27;12.17;;;4.20;99.90;;;;;;5044575;28;20199;-49
2022/11/28 07:34:10;;;;;;;12.43;11.13;;;4.20;99.90;;;;;;5052454;28;20203;-50
2022/11/28 07:36:38;;;;;;;14.03;12.47;;;4.20;99.90;;;;;;5043517;28;20224;-49
2022/11/28 07:39:07;;;;;;;16.80;11.60;;;4.30;99.90;;;;;;5053598;28;20214;-49
2022/11/28 07:41:35;;;;;;;14.20;11.47;;;4.30;99.90;;;;;;5053459;28;20239;-50
2022/11/28 07:44:04;;;;;;;15.45;12.32;;;4.30;99.90;;;;;;5051758;28;20451;-49
2022/11/28 07:46:33;;;;;;;18.30;13.93;;;4.40;99.90;;;;;;5046117;28;20585;-49
2022/11/28 07:49:00;;;;;;;36.60;26.53;;;4.40;99.90;;;;;;5049233;28;20824;-50
2022/11/28 07:51:29;;;;;;;74.67;48.00;;;4.40;99.90;;;;;;5051042;28;20742;-50
2022/11/28 07:53:57;;;;;;;63.50;40.63;;;4.50;99.90;;;;;;5051896;28;20219;-49
2022/11/28 07:56:27;;;;;;;41.17;27.77;;;4.50;99.90;;;;;;5053382;28;20234;-49
2022/11/28 07:58:54;;;;;;;39.13;26.53;;;4.60;99.90;;;;;;5053685;28;20199;-49
2022/11/28 08:01:24;;;;;;;21.47;15.60;;;4.60;99.90;;;;;;5053392;28;20207;-50
2022/11/28 08:03:52;;;;;;;16.57;13.40;;;4.60;99.90;;;;;;5052536;28;20211;-51
2022/11/28 08:06:22;;;;;;;12.57;11.23;;;4.60;99.90;;;;;;5049451;28;20554;-50
2022/11/28 08:08:50;;;;;;;13.80;11.07;;;4.70;99.90;;;;;;5044332;28;20744;-50
2022/11/28 08:11:19;;;;;;;13.07;11.70;;;4.70;99.90;;;;;;5049446;28;20200;-50
2022/11/28 08:13:46;;;;;;;11.67;10.10;;;4.70;99.90;;;;;;5051727;28;20206;-49
2022/11/28 08:16:16;;;;;;;16.40;11.83;;;4.80;99.90;;;;;;5050817;28;20222;-49
2022/11/28 08:18:45;;;;;;;15.73;12.30;;;4.90;99.90;;;;;;5044032;28;20253;-49
2022/11/28 08:21:16;;;;;;;16.10;11.97;;;4.90;99.90;;;;;;5054224;28;20226;-50
2022/11/28 08:23:44;;;;;;;12.30;10.90;;;5.00;99.90;;;;;;5052361;28;20203;-49
2022/11/28 08:26:13;;;;;;;15.30;12.23;;;5.00;99.90;;;;;;5052411;28;20196;-49
2022/11/28 08:28:40;;;;;;;12.50;10.37;;;5.00;99.90;;;;;;5049163;28;20265;-49
2022/11/28 08:31:11;;;;;;;12.27;11.03;;;5.10;99.90;;;;;;5052193;28;20244;-49
2022/11/28 08:33:39;;;;;;;14.87;11.60;;;5.10;99.90;;;;;;5043171;28;20208;-50
2022/11/28 08:36:09;;;;;;;14.03;11.80;;;5.20;99.90;;;;;;5052207;28;20208;-49
2022/11/28 08:38:36;;;;;;;15.13;12.23;;;5.20;99.90;;;;;;5050146;28;20262;-50
2022/11/28 08:41:04;;;;;;;14.00;11.60;;;5.20;99.90;;;;;;5042247;28;20287;-50
2022/11/28 08:43:31;;;;;;;13.13;11.67;;;5.30;99.90;;;;;;5039714;28;20254;-49
2022/11/28 08:45:58;;;;;;;15.50;12.57;;;5.30;99.90;;;;;;5042668;28;20196;-50
2022/11/28 08:48:25;;;;;;;12.77;11.23;;;5.30;99.90;;;;;;5046386;28;20290;-50
2022/11/28 08:50:53;;;;;;;13.83;12.13;;;5.40;99.90;;;;;;5041899;28;20312;-49
2022/11/28 08:53:21;;;;;;;14.57;12.00;;;5.40;99.90;;;;;;5053550;28;20216;-49
2022/11/28 08:55:48;;;;;;;14.93;11.60;;;5.60;99.90;;;;;;5043262;28;20605;-49
2022/11/28 08:58:15;;;;;;;15.77;12.67;;;5.60;99.90;;;;;;5044667;28;20269;-50
2022/11/28 09:00:43;;;;;;;13.73;12.10;;;5.60;99.90;;;;;;5050052;28;20251;-50
2022/11/28 09:03:14;;;;;;;13.87;11.30;;;5.60;99.90;;;;;;5061631;28;20259;-50
2022/11/28 09:05:42;;;;;;;17.17;11.53;;;5.70;99.90;;;;;;5051683;28;20288;-49
2022/11/28 09:08:09;;;;;;;13.80;11.53;;;5.70;99.90;;;;;;5051981;28;20232;-49
2022/11/28 09:10:38;;;;;;;15.33;12.73;;;5.70;99.90;;;;;;5042558;28;20275;-50
2022/11/28 09:13:05;;;;;;;14.67;10.70;;;5.80;99.90;;;;;;5043804;28;20620;-50
2022/11/28 09:15:32;;;;;;;13.90;11.33;;;5.80;99.90;;;;;;5061205;28;20196;-49
2022/11/28 09:17:59;;;;;;;13.70;10.97;;;5.90;99.90;;;;;;5056600;28;20221;-49
2022/11/28 09:20:26;;;;;;;15.97;13.20;;;5.90;99.90;;;;;;5051975;28;20223;-49
2022/11/28 09:22:53;;;;;;;12.57;11.27;;;6.00;99.90;;;;;;5048239;28;20633;-49
2022/11/28 09:25:20;;;;;;;17.20;12.10;;;6.00;99.90;;;;;;5045927;28;20642;-50
2022/11/28 09:27:49;;;;;;;11.87;10.60;;;6.10;99.90;;;;;;5051917;28;20205;-50
2022/11/28 09:30:16;;;;;;;13.80;11.47;;;6.20;99.90;;;;;;5051778;28;20235;-49
2022/11/28 09:32:47;;;;;;;12.13;10.90;;;6.30;99.90;;;;;;5051811;28;20216;-49
2022/11/28 09:35:14;;;;;;;14.63;12.03;;;6.40;99.90;;;;;;5050912;28;20207;-49
2022/11/28 09:37:41;;;;;;;11.73;10.53;;;6.60;99.90;;;;;;5051605;28;20270;-50
2022/11/28 09:40:16;;;;;;;17.30;14.87;;;6.70;99.90;;;;;;5051448;28;20225;-50
2022/11/28 09:42:44;;;;;;;17.27;12.70;;;6.70;99.90;;;;;;5051593;28;20203;-50
2022/11/28 09:45:16;;;;;;;14.00;12.47;;;6.80;99.90;;;;;;5049324;28;20275;-49
2022/11/28 09:47:47;;;;;;;13.63;11.93;;;6.70;99.90;;;;;;5050006;28;20202;-49
2022/11/28 09:50:19;;;;;;;13.47;11.70;;;6.70;99.90;;;;;;5044748;28;20775;-50
2022/11/28 09:52:52;;;;;;;14.23;12.00;;;6.60;99.90;;;;;;5051485;28;20620;-50
2022/11/28 09:55:26;;;;;;;14.77;12.30;;;6.70;99.90;;;;;;5049922;28;20212;-49
2022/11/28 09:57:55;;;;;;;14.80;12.20;;;6.70;99.90;;;;;;5050126;28;20218;-49
2022/11/28 10:00:32;;;;;;;13.73;12.30;;;6.90;99.90;;;;;;5051488;28;20235;-51
2022/11/28 10:03:14;;;;;;;18.37;12.33;;;6.90;99.90;;;;;;5051184;28;20211;-49
2022/11/28 10:05:46;;;;;;;14.90;13.07;;;6.90;99.90;;;;;;5051411;28;20211;-50
2022/11/28 10:08:23;;;;;;;15.90;12.50;;;6.90;99.90;;;;;;5051335;28;20616;-51
2022/11/28 10:11:02;;;;;;;14.33;11.27;;;6.90;99.90;;;;;;5042192;28;20227;-50
2022/11/28 10:13:40;;;;;;;14.77;12.10;;;6.90;99.90;;;;;;5046063;28;20734;-50
2022/11/28 10:16:17;;;;;;;16.27;12.20;;;6.90;99.90;;;;;;5031043;28;20254;-49
2022/11/28 10:18:48;;;;;;;13.77;12.10;;;7.00;99.90;;;;;;5031608;28;20206;-50
2022/11/28 10:21:26;;;;;;;13.10;11.13;;;7.00;99.90;;;;;;5050819;28;20224;-49
2022/11/28 10:23:57;;;;;;;13.83;11.07;;;7.20;99.90;;;;;;5050529;28;20565;-50
2022/11/28 10:26:31;;;;;;;14.40;12.03;;;7.30;99.90;;;;;;5048417;28;20269;-50
2022/11/28 10:29:02;;;;;;;13.50;10.80;;;7.30;99.90;;;;;;5052228;28;20251;-50
2022/11/28 10:31:35;;;;;;;13.70;10.20;;;7.30;99.90;;;;;;5041591;28;20208;-49
2022/11/28 10:34:07;;;;;;;11.37;10.17;;;7.40;99.90;;;;;;5050435;28;20257;-49
2022/11/28 10:36:55;;;;;;;11.70;10.50;;;7.40;99.90;;;;;;5046983;28;20195;-50
2022/11/28 10:39:25;;;;;;;15.47;11.47;;;7.40;99.90;;;;;;5045178;28;20272;-50
2022/11/28 10:42:13;;;;;;;13.93;10.63;;;7.40;99.90;;;;;;5049373;28;20204;-50
2022/11/28 10:45:03;;;;;;;12.47;10.63;;;7.30;99.90;;;;;;5048723;28;20241;-49
2022/11/28 10:47:54;;;;;;;16.50;11.83;;;7.30;99.90;;;;;;5044962;28;20198;-49
2022/11/28 10:50:32;;;;;;;11.70;10.53;;;7.40;99.90;;;;;;5045659;28;20648;-49
2022/11/28 10:53:04;;;;;;;12.23;11.03;;;7.40;99.90;;;;;;5041519;28;20199;-49
2022/11/28 10:55:43;;;;;;;12.00;10.27;;;7.40;99.90;;;;;;5058153;28;20675;-51
2022/11/28 10:58:21;;;;;;;11.63;10.37;;;7.40;99.90;;;;;;5043608;28;20272;-51
2022/11/28 11:00:49;;;;;;;14.07;10.37;;;7.40;99.90;;;;;;5049125;28;20222;-50
2022/11/28 11:03:18;;;;;;;12.83;9.63;;;7.50;99.90;;;;;;5053123;28;20283;-49
2022/11/28 11:05:45;;;;;;;8.90;7.73;;;7.50;99.90;;;;;;5051256;28;20207;-50
2022/11/28 11:08:19;;;;;;;11.23;9.80;;;7.60;99.90;;;;;;5054803;28;20195;-51
2022/11/28 11:10:49;;;;;;;11.53;9.80;;;7.60;99.90;;;;;;5054122;28;20778;-50
2022/11/28 11:13:19;;;;;;;12.43;9.43;;;7.70;99.90;;;;;;5052955;28;20203;-50
2022/11/28 11:15:49;;;;;;;10.23;7.80;;;7.70;99.90;;;;;;5051704;28;20207;-50
2022/11/28 11:18:26;;;;;;;12.00;8.47;;;7.70;99.90;;;;;;5054004;28;20606;-50
2022/11/28 11:21:09;;;;;;;12.80;8.30;;;7.70;99.90;;;;;;5054359;28;20227;-51
2022/11/28 11:23:37;;;;;;;9.80;8.80;;;7.70;99.90;;;;;;5053494;28;20207;-49
2022/11/28 11:26:09;;;;;;;9.73;7.50;;;7.80;99.90;;;;;;5054312;28;20208;-49
2022/11/28 11:28:42;;;;;;;8.33;7.57;;;7.80;99.90;;;;;;5054202;28;20202;-49
2022/11/28 11:31:25;;;;;;;7.53;6.93;;;7.90;99.90;;;;;;5044792;28;20228;-49
2022/11/28 11:34:02;;;;;;;9.30;8.07;;;7.90;99.90;;;;;;5053222;28;20208;-50
2022/11/28 11:36:30;;;;;;;8.53;7.63;;;7.80;99.90;;;;;;5054074;28;20259;-50
2022/11/28 11:39:19;;;;;;;9.83;8.27;;;7.90;99.90;;;;;;5053972;28;20235;-50
2022/11/28 11:41:47;;;;;;;8.73;6.83;;;8.00;99.90;;;;;;5053970;28;20274;-51
2022/11/28 11:44:33;;;;;;;8.80;7.60;;;8.20;99.90;;;;;;5053329;28;20207;-49
2022/11/28 11:47:02;;;;;;;9.70;7.47;;;8.20;99.90;;;;;;5047981;28;20283;-49
2022/11/28 11:49:35;;;;;;;9.33;8.20;;;8.20;99.90;;;;;;5040500;28;20309;-49
2022/11/28 11:52:05;;;;;;;7.93;7.13;;;8.30;99.90;;;;;;5046169;28;20270;-49
2022/11/28 11:54:36;;;;;;;8.77;7.77;;;8.20;99.90;;;;;;5052945;28;20693;-50
2022/11/28 11:57:03;;;;;;;11.20;7.97;;;8.20;99.90;;;;;;5053459;28;20214;-50
2022/11/28 11:59:39;;;;;;;8.17;7.47;;;8.30;99.90;;;;;;5053458;28;20224;-50
2022/11/28 12:02:15;;;;;;;9.60;8.47;;;8.30;99.90;;;;;;5052930;28;20208;-48
2022/11/28 12:04:49;;;;;;;7.43;6.83;;;8.20;99.90;;;;;;5043353;28;20661;-50
2022/11/28 12:07:23;;;;;;;9.23;8.33;;;8.30;99.90;;;;;;5053423;28;20736;-49
2022/11/28 12:09:53;;;;;;;10.63;8.10;;;8.20;99.90;;;;;;5047231;28;20227;-50
2022/11/28 12:12:23;;;;;;;10.73;8.63;;;8.20;99.90;;;;;;5047881;28;20254;-50
2022/11/28 12:14:51;;;;;;;8.37;7.50;;;8.20;99.90;;;;;;5047163;28;20199;-50
2022/11/28 12:17:32;;;;;;;8.20;7.40;;;8.20;99.90;;;;;;5058856;28;20302;-50
2022/11/28 12:20:26;;;;;;;7.67;6.97;;;8.20;99.90;;;;;;5043803;28;20656;-49
2022/11/28 12:23:00;;;;;;;7.83;7.13;;;8.20;99.90;;;;;;5051878;28;20207;-50
2022/11/28 12:25:39;;;;;;;9.95;8.95;;;8.10;99.90;;;;;;5047067;28;20925;-50
2022/11/28 12:28:15;;;;;;;9.40;8.40;;;8.20;99.90;;;;;;5054756;28;20196;-49
2022/11/28 12:30:55;;;;;;;12.13;8.80;;;8.10;99.90;;;;;;5046354;28;20223;-49
2022/11/28 12:33:37;;;;;;;9.53;8.30;;;8.10;99.90;;;;;;5040195;28;20211;-50
2022/11/28 12:36:16;;;;;;;8.43;7.63;;;8.10;99.90;;;;;;5044514;28;20695;-50
2022/11/28 12:38:59;;;;;;;11.10;9.20;;;8.10;99.90;;;;;;5052735;28;20216;-50
2022/11/28 12:42:00;;;;;;;10.87;8.97;;;8.10;99.90;;;;;;5042777;28;20234;-51
2022/11/28 12:44:39;;;;;;;10.03;8.23;;;8.10;99.90;;;;;;5042719;28;20203;-49
2022/11/28 12:47:14;;;;;;;8.77;7.73;;;8.20;99.90;;;;;;5047758;28;20587;-50
2022/11/28 12:49:51;;;;;;;11.43;8.10;;;8.10;99.90;;;;;;5055372;28;20227;-50
2022/11/28 12:52:28;;;;;;;9.20;8.13;;;8.10;99.90;;;;;;5051080;28;20642;-49
2022/11/28 12:55:07;;;;;;;8.67;7.87;;;8.00;99.90;;;;;;5043206;28;20242;-49
2022/11/28 12:57:39;;;;;;;11.57;7.90;;;7.90;99.90;;;;;;5052093;28;20677;-49
2022/11/28 13:00:13;;;;;;;9.43;8.53;;;7.90;99.90;;;;;;5052139;28;20719;-49
2022/11/28 13:02:55;;;;;;;7.93;7.07;;;7.90;99.90;;;;;;5051924;28;20681;-48